sensor_id;sensor_type;location;lat;lon;timestamp;temperature;humidity
32400;DHT22;45045;45.440;9.178;2022-12-10T00:01:41;13.30;99.90
32400;DHT22;45045;45.440;9.178;2022-12-10T00:04:07;13.40;99.90
32400;DHT22;45045;45.440;9.178;2022-12-10T00:06:34;13.40;99.90
32400;DHT22;45045;45.440;9.178;2022-12-10T00:09:02;13.40;99.90
32400;DHT22;45045;45.440;9.178;2022-12-10T00:11:28;13.40;99.90
32400;DHT22;45045;45.440;9.178;2022-12-10T00:13:54;13.40;99.90
32400;DHT22;45045;45.440;9.178;2022-12-10T00:16:23;13.30;99.90
32400;DHT22;45045;45.440;9.178;2022-12-10T00:18:49;13.30;99.90
32400;DHT22;45045;45.440;9.178;2022-12-10T00:21:17;13.40;99.90
32400;DHT22;45045;45.440;9.178;2022-12-10T00:23:43;13.40;99.90
32400;DHT22;45045;45.440;9.178;2022-12-10T00:26:12;13.30;99.90
32400;DHT22;45045;45.440;9.178;2022-12-10T00:28:39;13.30;99.90
32400;DHT22;45045;45.440;9.178;2022-12-10T00:31:22;13.30;99.90
32400;DHT22;45045;45.440;9.178;2022-12-10T00:33:48;13.30;99.90
32400;DHT22;45045;45.440;9.178;2022-12-10T00:36:18;13.30;99.90
32400;DHT22;45045;45.440;9.178;2022-12-10T00:38:46;13.30;99.90
32400;DHT22;45045;45.440;9.178;2022-12-10T00:41:12;13.30;99.90
32400;DHT22;45045;45.440;9.178;2022-12-10T00:43:38;13.30;99.90
32400;DHT22;45045;45.440;9.178;2022-12-10T00:46:04;13.30;99.90
32400;DHT22;45045;45.440;9.178;2022-12-10T00:48:30;13.30;99.90
32400;DHT22;45045;45.440;9.178;2022-12-10T00:51:00;13.30;99.90
32400;DHT22;45045;45.440;9.178;2022-12-10T00:53:27;13.30;99.90
32400;DHT22;45045;45.440;9.178;2022-12-10T00:55:54;13.30;99.90
32400;DHT22;45045;45.440;9.178;2022-12-10T00:58:20;13.20;99.90
32400;DHT22;45045;45.440;9.178;2022-12-10T01:00:47;13.30;99.90
32400;DHT22;45045;45.440;9.178;2022-12-10T01:03:13;13.20;99.90
32400;DHT22;45045;45.440;9.178;2022-12-10T01:05:38;13.20;99.90
32400;DHT22;45045;45.440;9.178;2022-12-10T01:08:04;13.20;99.90
32400;DHT22;45045;45.440;9.178;2022-12-10T01:10:30;13.20;99.90
32400;DHT22;45045;45.440;9.178;2022-12-10T01:12:55;13.30;99.90
32400;DHT22;45045;45.440;9.178;2022-12-10T01:15:21;13.30;99.90
32400;DHT22;45045;45.440;9.178;2022-12-10T01:17:47;13.30;99.90
32400;DHT22;45045;45.440;9.178;2022-12-10T01:20:12;13.30;99.90
32400;DHT22;45045;45.440;9.178;2022-12-10T01:22:38;13.30;99.90
32400;DHT22;45045;45.440;9.178;2022-12-10T01:25:04;13.30;99.90
32400;DHT22;45045;45.440;9.178;2022-12-10T01:27:29;13.20;99.90
32400;DHT22;45045;45.440;9.178;2022-12-10T01:29:56;13.20;99.90
32400;DHT22;45045;45.440;9.178;2022-12-10T01:32:22;13.20;99.90
32400;DHT22;45045;45.440;9.178;2022-12-10T01:34:48;13.30;99.90
32400;DHT22;45045;45.440;9.178;2022-12-10T01:37:13;13.20;99.90
32400;DHT22;45045;45.440;9.178;2022-12-10T01:39:39;13.20;99.90
32400;DHT22;45045;45.440;9.178;2022-12-10T01:42:05;13.20;99.90
32400;DHT22;45045;45.440;9.178;2022-12-10T01:46:58;13.20;99.90
32400;DHT22;45045;45.440;9.178;2022-12-10T01:49:33;13.20;99.90
32400;DHT22;45045;45.440;9.178;2022-12-10T01:52:00;13.20;99.90
32400;DHT22;45045;45.440;9.178;2022-12-10T01:54:32;13.20;99.90
32400;DHT22;45045;45.440;9.178;2022-12-10T01:57:09;13.20;99.90
32400;DHT22;45045;45.440;9.178;2022-12-10T01:59:37;13.20;99.90
32400;DHT22;45045;45.440;9.178;2022-12-10T02:05:10;13.20;99.90
32400;DHT22;45045;45.440;9.178;2022-12-10T02:13:42;13.20;99.90
32400;DHT22;45045;45.440;9.178;2022-12-10T02:16:20;13.20;99.90
32400;DHT22;45045;45.440;9.178;2022-12-10T02:18:51;13.20;99.90
32400;DHT22;45045;45.440;9.178;2022-12-10T02:21:26;13.20;99.90
32400;DHT22;45045;45.440;9.178;2022-12-10T02:23:57;13.20;99.90
32400;DHT22;45045;45.440;9.178;2022-12-10T02:27:06;13.20;99.90
32400;DHT22;45045;45.440;9.178;2022-12-10T02:29:30;13.10;99.90
32400;DHT22;45045;45.440;9.178;2022-12-10T02:34:23;13.20;99.90
32400;DHT22;45045;45.440;9.178;2022-12-10T02:36:52;13.20;99.90
32400;DHT22;45045;45.440;9.178;2022-12-10T02:39:26;13.10;99.90
32400;DHT22;45045;45.440;9.178;2022-12-10T02:41:54;13.20;99.90
32400;DHT22;45045;45.440;9.178;2022-12-10T02:44:21;13.20;99.90
32400;DHT22;45045;45.440;9.178;2022-12-10T02:46:50;13.20;99.90
32400;DHT22;45045;45.440;9.178;2022-12-10T02:49:17;13.10;99.90
32400;DHT22;45045;45.440;9.178;2022-12-10T02:51:43;13.10;99.90
32400;DHT22;45045;45.440;9.178;2022-12-10T02:59:51;13.20;99.90
32400;DHT22;45045;45.440;9.178;2022-12-10T03:02:34;13.20;99.90
32400;DHT22;45045;45.440;9.178;2022-12-10T03:05:11;13.20;99.90
32400;DHT22;45045;45.440;9.178;2022-12-10T03:08:08;13.20;99.90
32400;DHT22;45045;45.440;9.178;2022-12-10T03:13:11;13.20;99.90
32400;DHT22;45045;45.440;9.178;2022-12-10T03:15:40;13.20;99.90
32400;DHT22;45045;45.440;9.178;2022-12-10T03:18:07;13.10;99.90
32400;DHT22;45045;45.440;9.178;2022-12-10T03:20:39;13.10;99.90
32400;DHT22;45045;45.440;9.178;2022-12-10T03:23:09;13.20;99.90
32400;DHT22;45045;45.440;9.178;2022-12-10T03:25:37;13.10;99.90
32400;DHT22;45045;45.440;9.178;2022-12-10T03:28:04;13.10;99.90
32400;DHT22;45045;45.440;9.178;2022-12-10T03:30:34;13.10;99.90
32400;DHT22;45045;45.440;9.178;2022-12-10T03:33:02;13.20;99.90
32400;DHT22;45045;45.440;9.178;2022-12-10T03:35:29;13.10;99.90
32400;DHT22;45045;45.440;9.178;2022-12-10T03:37:55;13.20;99.90
32400;DHT22;45045;45.440;9.178;2022-12-10T03:40:23;13.20;99.90
32400;DHT22;45045;45.440;9.178;2022-12-10T03:42:49;13.10;99.90
32400;DHT22;45045;45.440;9.178;2022-12-10T03:45:15;13.10;99.90
32400;DHT22;45045;45.440;9.178;2022-12-10T03:47:41;13.10;99.90
32400;DHT22;45045;45.440;9.178;2022-12-10T03:50:08;13.10;99.90
32400;DHT22;45045;45.440;9.178;2022-12-10T03:52:34;13.10;99.90
32400;DHT22;45045;45.440;9.178;2022-12-10T03:54:59;13.10;99.90
32400;DHT22;45045;45.440;9.178;2022-12-10T03:57:25;13.10;99.90
32400;DHT22;45045;45.440;9.178;2022-12-10T03:59:50;13.10;99.90
32400;DHT22;45045;45.440;9.178;2022-12-10T04:02:16;13.10;99.90
32400;DHT22;45045;45.440;9.178;2022-12-10T04:04:42;13.10;99.90
32400;DHT22;45045;45.440;9.178;2022-12-10T04:07:07;13.00;99.90
32400;DHT22;45045;45.440;9.178;2022-12-10T04:09:33;13.00;99.90
32400;DHT22;45045;45.440;9.178;2022-12-10T04:11:59;12.90;99.90
32400;DHT22;45045;45.440;9.178;2022-12-10T04:14:26;12.80;99.90
32400;DHT22;45045;45.440;9.178;2022-12-10T04:17:10;12.90;99.90
32400;DHT22;45045;45.440;9.178;2022-12-10T04:19:36;12.90;99.90
32400;DHT22;45045;45.440;9.178;2022-12-10T04:22:02;12.90;99.90
32400;DHT22;45045;45.440;9.178;2022-12-10T04:24:47;12.90;99.90
32400;DHT22;45045;45.440;9.178;2022-12-10T04:27:35;12.90;99.90
32400;DHT22;45045;45.440;9.178;2022-12-10T04:30:02;12.90;99.90
32400;DHT22;45045;45.440;9.178;2022-12-10T04:32:29;12.90;99.90
32400;DHT22;45045;45.440;9.178;2022-12-10T04:34:55;12.90;99.90
32400;DHT22;45045;45.440;9.178;2022-12-10T04:37:21;13.00;99.90
32400;DHT22;45045;45.440;9.178;2022-12-10T04:39:49;12.90;99.90
32400;DHT22;45045;45.440;9.178;2022-12-10T04:42:16;13.00;99.90
32400;DHT22;45045;45.440;9.178;2022-12-10T04:44:41;13.00;99.90
32400;DHT22;45045;45.440;9.178;2022-12-10T04:47:08;13.00;99.90
32400;DHT22;45045;45.440;9.178;2022-12-10T04:49:34;13.00;99.90
32400;DHT22;45045;45.440;9.178;2022-12-10T04:52:00;13.00;99.90
32400;DHT22;45045;45.440;9.178;2022-12-10T04:54:26;13.00;99.90
32400;DHT22;45045;45.440;9.178;2022-12-10T04:56:52;13.00;99.90
32400;DHT22;45045;45.440;9.178;2022-12-10T04:59:18;13.00;99.90
32400;DHT22;45045;45.440;9.178;2022-12-10T05:01:44;13.00;99.90
32400;DHT22;45045;45.440;9.178;2022-12-10T05:04:12;13.00;99.90
32400;DHT22;45045;45.440;9.178;2022-12-10T05:06:38;13.00;99.90
32400;DHT22;45045;45.440;9.178;2022-12-10T05:09:05;13.00;99.80
32400;DHT22;45045;45.440;9.178;2022-12-10T05:11:31;13.00;99.90
32400;DHT22;45045;45.440;9.178;2022-12-10T05:13:58;12.90;99.90
32400;DHT22;45045;45.440;9.178;2022-12-10T05:16:25;12.90;99.90
32400;DHT22;45045;45.440;9.178;2022-12-10T05:18:52;12.90;99.90
32400;DHT22;45045;45.440;9.178;2022-12-10T05:21:19;12.90;99.90
32400;DHT22;45045;45.440;9.178;2022-12-10T05:23:48;12.90;99.90
32400;DHT22;45045;45.440;9.178;2022-12-10T05:26:19;12.90;99.90
32400;DHT22;45045;45.440;9.178;2022-12-10T05:28:46;12.90;99.90
32400;DHT22;45045;45.440;9.178;2022-12-10T05:31:18;12.90;99.90
32400;DHT22;45045;45.440;9.178;2022-12-10T05:33:43;12.90;99.90
32400;DHT22;45045;45.440;9.178;2022-12-10T05:36:11;12.90;99.90
32400;DHT22;45045;45.440;9.178;2022-12-10T05:38:38;12.90;99.90
32400;DHT22;45045;45.440;9.178;2022-12-10T05:41:10;12.90;99.90
32400;DHT22;45045;45.440;9.178;2022-12-10T05:43:37;12.90;99.90
32400;DHT22;45045;45.440;9.178;2022-12-10T05:46:09;12.90;99.90
32400;DHT22;45045;45.440;9.178;2022-12-10T05:48:35;12.90;99.90
32400;DHT22;45045;45.440;9.178;2022-12-10T05:51:09;13.00;99.90
32400;DHT22;45045;45.440;9.178;2022-12-10T05:53:35;13.00;99.90
32400;DHT22;45045;45.440;9.178;2022-12-10T05:56:12;13.00;99.90
32400;DHT22;45045;45.440;9.178;2022-12-10T05:58:39;12.90;99.00
32400;DHT22;45045;45.440;9.178;2022-12-10T06:01:07;12.90;99.90
32400;DHT22;45045;45.440;9.178;2022-12-10T06:03:33;12.90;99.90
32400;DHT22;45045;45.440;9.178;2022-12-10T06:05:58;12.90;99.90
32400;DHT22;45045;45.440;9.178;2022-12-10T06:08:24;12.90;99.90
32400;DHT22;45045;45.440;9.178;2022-12-10T06:10:49;12.90;99.90
32400;DHT22;45045;45.440;9.178;2022-12-10T06:13:15;12.90;99.90
32400;DHT22;45045;45.440;9.178;2022-12-10T06:15:41;12.90;99.90
32400;DHT22;45045;45.440;9.178;2022-12-10T06:18:07;12.90;99.90
32400;DHT22;45045;45.440;9.178;2022-12-10T06:20:33;12.90;99.90
32400;DHT22;45045;45.440;9.178;2022-12-10T06:22:58;12.90;99.90
32400;DHT22;45045;45.440;9.178;2022-12-10T06:25:24;12.90;99.90
32400;DHT22;45045;45.440;9.178;2022-12-10T06:27:50;12.90;99.90
32400;DHT22;45045;45.440;9.178;2022-12-10T06:30:15;12.90;99.90
32400;DHT22;45045;45.440;9.178;2022-12-10T06:32:41;12.90;99.90
32400;DHT22;45045;45.440;9.178;2022-12-10T06:35:09;12.90;99.90
32400;DHT22;45045;45.440;9.178;2022-12-10T06:37:34;12.80;99.90
32400;DHT22;45045;45.440;9.178;2022-12-10T06:40:00;12.80;99.90
32400;DHT22;45045;45.440;9.178;2022-12-10T06:42:26;12.80;99.90
32400;DHT22;45045;45.440;9.178;2022-12-10T06:44:51;12.70;99.90
32400;DHT22;45045;45.440;9.178;2022-12-10T06:47:17;12.80;99.90
32400;DHT22;45045;45.440;9.178;2022-12-10T06:49:42;12.80;99.90
32400;DHT22;45045;45.440;9.178;2022-12-10T06:52:08;12.80;99.90
32400;DHT22;45045;45.440;9.178;2022-12-10T06:54:33;12.90;99.90
32400;DHT22;45045;45.440;9.178;2022-12-10T06:56:59;12.90;99.90
32400;DHT22;45045;45.440;9.178;2022-12-10T06:59:25;12.90;99.90
32400;DHT22;45045;45.440;9.178;2022-12-10T07:01:50;12.90;99.90
32400;DHT22;45045;45.440;9.178;2022-12-10T07:04:16;13.00;99.90
32400;DHT22;45045;45.440;9.178;2022-12-10T07:06:42;12.90;99.90
32400;DHT22;45045;45.440;9.178;2022-12-10T07:09:08;12.90;99.90
32400;DHT22;45045;45.440;9.178;2022-12-10T07:11:35;13.00;99.90
32400;DHT22;45045;45.440;9.178;2022-12-10T07:14:01;13.00;99.90
32400;DHT22;45045;45.440;9.178;2022-12-10T07:16:29;13.00;99.90
32400;DHT22;45045;45.440;9.178;2022-12-10T07:18:57;13.00;99.90
32400;DHT22;45045;45.440;9.178;2022-12-10T07:21:33;12.90;99.90
32400;DHT22;45045;45.440;9.178;2022-12-10T07:24:03;12.90;99.90
32400;DHT22;45045;45.440;9.178;2022-12-10T07:26:30;12.90;99.90
32400;DHT22;45045;45.440;9.178;2022-12-10T07:28:57;12.90;99.90
32400;DHT22;45045;45.440;9.178;2022-12-10T07:31:23;12.90;99.90
32400;DHT22;45045;45.440;9.178;2022-12-10T07:33:50;12.80;99.90
32400;DHT22;45045;45.440;9.178;2022-12-10T07:36:16;12.90;99.90
32400;DHT22;45045;45.440;9.178;2022-12-10T07:38:41;12.90;99.90
32400;DHT22;45045;45.440;9.178;2022-12-10T07:41:10;12.80;99.90
32400;DHT22;45045;45.440;9.178;2022-12-10T07:43:38;12.90;99.90
32400;DHT22;45045;45.440;9.178;2022-12-10T07:46:07;12.90;99.90
32400;DHT22;45045;45.440;9.178;2022-12-10T07:48:34;12.90;99.90
32400;DHT22;45045;45.440;9.178;2022-12-10T07:51:00;12.90;99.90
32400;DHT22;45045;45.440;9.178;2022-12-10T07:53:25;12.90;99.90
32400;DHT22;45045;45.440;9.178;2022-12-10T07:55:51;12.90;99.90
32400;DHT22;45045;45.440;9.178;2022-12-10T07:58:16;12.90;99.90
32400;DHT22;45045;45.440;9.178;2022-12-10T08:00:42;12.90;99.90
32400;DHT22;45045;45.440;9.178;2022-12-10T08:03:08;12.90;99.90
32400;DHT22;45045;45.440;9.178;2022-12-10T08:05:33;12.90;99.90
32400;DHT22;45045;45.440;9.178;2022-12-10T08:07:59;13.00;99.90
32400;DHT22;45045;45.440;9.178;2022-12-10T08:10:24;13.00;99.90
32400;DHT22;45045;45.440;9.178;2022-12-10T08:12:50;12.90;99.90
32400;DHT22;45045;45.440;9.178;2022-12-10T08:15:16;12.90;99.90
32400;DHT22;45045;45.440;9.178;2022-12-10T08:17:41;12.80;99.90
32400;DHT22;45045;45.440;9.178;2022-12-10T08:20:08;12.80;99.90
32400;DHT22;45045;45.440;9.178;2022-12-10T08:22:34;12.80;99.90
32400;DHT22;45045;45.440;9.178;2022-12-10T08:25:01;12.80;99.90
32400;DHT22;45045;45.440;9.178;2022-12-10T08:27:26;12.90;99.90
32400;DHT22;45045;45.440;9.178;2022-12-10T08:29:52;12.90;99.90
32400;DHT22;45045;45.440;9.178;2022-12-10T08:32:18;12.90;99.90
32400;DHT22;45045;45.440;9.178;2022-12-10T08:34:44;12.80;99.90
32400;DHT22;45045;45.440;9.178;2022-12-10T08:37:10;12.70;99.90
32400;DHT22;45045;45.440;9.178;2022-12-10T08:39:35;12.70;99.90
32400;DHT22;45045;45.440;9.178;2022-12-10T08:42:01;12.70;99.90
32400;DHT22;45045;45.440;9.178;2022-12-10T08:44:27;12.80;99.90
32400;DHT22;45045;45.440;9.178;2022-12-10T08:46:53;12.70;99.90
32400;DHT22;45045;45.440;9.178;2022-12-10T08:49:19;12.80;99.90
32400;DHT22;45045;45.440;9.178;2022-12-10T08:51:44;12.80;99.90
32400;DHT22;45045;45.440;9.178;2022-12-10T08:54:10;12.80;99.90
32400;DHT22;45045;45.440;9.178;2022-12-10T08:56:35;12.90;99.90
32400;DHT22;45045;45.440;9.178;2022-12-10T08:59:01;12.90;99.90
32400;DHT22;45045;45.440;9.178;2022-12-10T09:01:27;12.90;99.90
32400;DHT22;45045;45.440;9.178;2022-12-10T09:03:53;12.90;99.90
32400;DHT22;45045;45.440;9.178;2022-12-10T09:06:21;13.00;99.90
32400;DHT22;45045;45.440;9.178;2022-12-10T09:08:47;13.00;99.90
32400;DHT22;45045;45.440;9.178;2022-12-10T09:11:31;13.00;99.90
32400;DHT22;45045;45.440;9.178;2022-12-10T09:13:57;13.00;99.90
32400;DHT22;45045;45.440;9.178;2022-12-10T09:16:34;13.00;99.90
32400;DHT22;45045;45.440;9.178;2022-12-10T09:19:01;13.00;99.90
32400;DHT22;45045;45.440;9.178;2022-12-10T09:21:27;13.00;99.90
32400;DHT22;45045;45.440;9.178;2022-12-10T09:23:53;13.00;99.90
32400;DHT22;45045;45.440;9.178;2022-12-10T09:26:19;12.90;99.90
32400;DHT22;45045;45.440;9.178;2022-12-10T09:28:46;13.00;99.90
32400;DHT22;45045;45.440;9.178;2022-12-10T09:31:17;13.00;99.90
32400;DHT22;45045;45.440;9.178;2022-12-10T09:33:43;13.00;99.90
32400;DHT22;45045;45.440;9.178;2022-12-10T09:36:11;13.00;99.90
32400;DHT22;45045;45.440;9.178;2022-12-10T09:38:41;13.00;99.90
32400;DHT22;45045;45.440;9.178;2022-12-10T09:43:52;13.00;99.90
32400;DHT22;45045;45.440;9.178;2022-12-10T09:51:26;13.00;99.90
32400;DHT22;45045;45.440;9.178;2022-12-10T09:53:54;12.90;99.90
32400;DHT22;45045;45.440;9.178;2022-12-10T09:56:32;13.00;99.90
32400;DHT22;45045;45.440;9.178;2022-12-10T09:59:03;13.00;99.90
32400;DHT22;45045;45.440;9.178;2022-12-10T10:01:33;13.00;99.90
32400;DHT22;45045;45.440;9.178;2022-12-10T10:04:00;13.00;99.90
32400;DHT22;45045;45.440;9.178;2022-12-10T10:06:28;13.00;99.90
32400;DHT22;45045;45.440;9.178;2022-12-10T10:08:56;13.00;99.90
32400;DHT22;45045;45.440;9.178;2022-12-10T10:11:27;13.10;99.90
32400;DHT22;45045;45.440;9.178;2022-12-10T10:13:57;13.00;99.90
32400;DHT22;45045;45.440;9.178;2022-12-10T10:16:32;13.00;99.90
32400;DHT22;45045;45.440;9.178;2022-12-10T10:19:05;13.00;99.90
32400;DHT22;45045;45.440;9.178;2022-12-10T10:21:35;13.00;99.90
32400;DHT22;45045;45.440;9.178;2022-12-10T10:24:02;13.10;99.90
32400;DHT22;45045;45.440;9.178;2022-12-10T10:26:28;13.10;99.90
32400;DHT22;45045;45.440;9.178;2022-12-10T10:28:58;13.10;99.90
32400;DHT22;45045;45.440;9.178;2022-12-10T10:31:28;13.10;99.90
32400;DHT22;45045;45.440;9.178;2022-12-10T10:34:00;13.00;99.90
32400;DHT22;45045;45.440;9.178;2022-12-10T10:36:32;13.00;99.90
32400;DHT22;45045;45.440;9.178;2022-12-10T10:39:09;12.90;99.90
32400;DHT22;45045;45.440;9.178;2022-12-10T10:41:38;13.00;99.90
32400;DHT22;45045;45.440;9.178;2022-12-10T10:44:05;13.00;99.90
32400;DHT22;45045;45.440;9.178;2022-12-10T10:46:38;13.00;99.90
32400;DHT22;45045;45.440;9.178;2022-12-10T10:49:30;13.00;99.90
32400;DHT22;45045;45.440;9.178;2022-12-10T10:52:05;13.00;99.90
32400;DHT22;45045;45.440;9.178;2022-12-10T10:54:44;13.00;99.90
32400;DHT22;45045;45.440;9.178;2022-12-10T10:57:25;13.10;99.90
32400;DHT22;45045;45.440;9.178;2022-12-10T10:59:55;13.10;99.90
32400;DHT22;45045;45.440;9.178;2022-12-10T11:02:26;13.10;99.90
32400;DHT22;45045;45.440;9.178;2022-12-10T11:04:55;13.10;99.90
32400;DHT22;45045;45.440;9.178;2022-12-10T11:09:59;13.10;99.90
32400;DHT22;45045;45.440;9.178;2022-12-10T11:14:55;13.10;99.90
32400;DHT22;45045;45.440;9.178;2022-12-10T11:17:23;13.10;99.90
32400;DHT22;45045;45.440;9.178;2022-12-10T11:19:59;13.10;99.90
32400;DHT22;45045;45.440;9.178;2022-12-10T11:22:30;13.30;99.90
32400;DHT22;45045;45.440;9.178;2022-12-10T11:24:57;13.50;99.90
32400;DHT22;45045;45.440;9.178;2022-12-10T11:30:21;13.60;99.90
32400;DHT22;45045;45.440;9.178;2022-12-10T11:41:41;13.50;99.70
32400;DHT22;45045;45.440;9.178;2022-12-10T11:46:58;12.80;99.20
32400;DHT22;45045;45.440;9.178;2022-12-10T11:49:52;12.50;97.40
32400;DHT22;45045;45.440;9.178;2022-12-10T11:52:48;12.40;99.80
32400;DHT22;45045;45.440;9.178;2022-12-10T12:00:20;13.30;99.90
32400;DHT22;45045;45.440;9.178;2022-12-10T12:05:55;13.70;99.70
32400;DHT22;45045;45.440;9.178;2022-12-10T12:14:28;13.50;95.90
32400;DHT22;45045;45.440;9.178;2022-12-10T12:19:13;13.50;98.90
32400;DHT22;45045;45.440;9.178;2022-12-10T12:21:40;13.60;98.00
32400;DHT22;45045;45.440;9.178;2022-12-10T12:24:47;13.50;98.70
32400;DHT22;45045;45.440;9.178;2022-12-10T12:27:35;13.40;98.60
32400;DHT22;45045;45.440;9.178;2022-12-10T12:30:13;13.50;98.70
32400;DHT22;45045;45.440;9.178;2022-12-10T12:35:57;13.60;98.60
32400;DHT22;45045;45.440;9.178;2022-12-10T12:38:27;13.50;98.30
32400;DHT22;45045;45.440;9.178;2022-12-10T12:41:15;13.50;98.70
32400;DHT22;45045;45.440;9.178;2022-12-10T12:46:46;13.50;98.90
32400;DHT22;45045;45.440;9.178;2022-12-10T12:49:30;13.60;98.80
32400;DHT22;45045;45.440;9.178;2022-12-10T12:52:09;13.60;98.80
32400;DHT22;45045;45.440;9.178;2022-12-10T12:54:39;13.60;98.70
32400;DHT22;45045;45.440;9.178;2022-12-10T12:57:37;13.60;98.40
32400;DHT22;45045;45.440;9.178;2022-12-10T13:00:10;13.50;99.00
32400;DHT22;45045;45.440;9.178;2022-12-10T13:05:28;13.60;98.90
32400;DHT22;45045;45.440;9.178;2022-12-10T13:10:57;13.70;98.80
32400;DHT22;45045;45.440;9.178;2022-12-10T13:13:30;13.60;98.90
32400;DHT22;45045;45.440;9.178;2022-12-10T13:22:08;13.50;99.20
32400;DHT22;45045;45.440;9.178;2022-12-10T13:27:18;13.50;99.30
32400;DHT22;45045;45.440;9.178;2022-12-10T13:37:55;13.40;99.40
32400;DHT22;45045;45.440;9.178;2022-12-10T13:42:59;13.60;99.50
32400;DHT22;45045;45.440;9.178;2022-12-10T13:49:03;13.60;99.30
32400;DHT22;45045;45.440;9.178;2022-12-10T13:57:04;13.40;98.30
32400;DHT22;45045;45.440;9.178;2022-12-10T14:08:13;13.60;99.60
32400;DHT22;45045;45.440;9.178;2022-12-10T14:10:41;13.60;99.50
32400;DHT22;45045;45.440;9.178;2022-12-10T14:13:12;13.70;99.40
32400;DHT22;45045;45.440;9.178;2022-12-10T14:15:38;13.70;99.40
32400;DHT22;45045;45.440;9.178;2022-12-10T14:18:12;13.70;99.30
32400;DHT22;45045;45.440;9.178;2022-12-10T14:20:43;13.80;98.80
32400;DHT22;45045;45.440;9.178;2022-12-10T14:26:15;13.80;99.10
32400;DHT22;45045;45.440;9.178;2022-12-10T14:28:47;13.80;98.80
32400;DHT22;45045;45.440;9.178;2022-12-10T14:31:19;13.70;99.20
32400;DHT22;45045;45.440;9.178;2022-12-10T14:33:48;13.60;99.00
32400;DHT22;45045;45.440;9.178;2022-12-10T14:36:26;13.60;99.60
32400;DHT22;45045;45.440;9.178;2022-12-10T14:38:52;13.50;98.40
32400;DHT22;45045;45.440;9.178;2022-12-10T14:41:20;13.60;99.60
32400;DHT22;45045;45.440;9.178;2022-12-10T14:43:48;13.60;99.50
32400;DHT22;45045;45.440;9.178;2022-12-10T14:46:20;13.70;99.40
32400;DHT22;45045;45.440;9.178;2022-12-10T14:48:49;13.70;99.50
32400;DHT22;45045;45.440;9.178;2022-12-10T14:51:19;13.70;99.40
32400;DHT22;45045;45.440;9.178;2022-12-10T14:53:45;13.80;99.40
32400;DHT22;45045;45.440;9.178;2022-12-10T14:56:19;13.80;99.30
32400;DHT22;45045;45.440;9.178;2022-12-10T14:58:59;13.90;99.10
32400;DHT22;45045;45.440;9.178;2022-12-10T15:01:34;13.90;99.20
32400;DHT22;45045;45.440;9.178;2022-12-10T15:04:04;13.90;99.20
32400;DHT22;45045;45.440;9.178;2022-12-10T15:06:34;13.90;99.10
32400;DHT22;45045;45.440;9.178;2022-12-10T15:09:01;13.90;99.00
32400;DHT22;45045;45.440;9.178;2022-12-10T15:11:27;13.90;99.20
32400;DHT22;45045;45.440;9.178;2022-12-10T15:13:57;13.90;99.20
32400;DHT22;45045;45.440;9.178;2022-12-10T15:16:38;13.90;99.30
32400;DHT22;45045;45.440;9.178;2022-12-10T15:19:24;13.90;99.30
32400;DHT22;45045;45.440;9.178;2022-12-10T15:21:51;13.90;99.40
32400;DHT22;45045;45.440;9.178;2022-12-10T15:24:39;13.90;99.30
32400;DHT22;45045;45.440;9.178;2022-12-10T15:27:25;13.90;99.70
32400;DHT22;45045;45.440;9.178;2022-12-10T15:29:51;13.90;99.80
32400;DHT22;45045;45.440;9.178;2022-12-10T15:32:24;13.90;99.80
32400;DHT22;45045;45.440;9.178;2022-12-10T15:37:27;14.00;99.90
32400;DHT22;45045;45.440;9.178;2022-12-10T15:39:58;14.00;99.90
32400;DHT22;45045;45.440;9.178;2022-12-10T15:42:44;14.00;99.90
32400;DHT22;45045;45.440;9.178;2022-12-10T15:45:23;14.00;99.90
32400;DHT22;45045;45.440;9.178;2022-12-10T15:47:51;14.00;99.90
32400;DHT22;45045;45.440;9.178;2022-12-10T15:50:17;14.00;99.90
32400;DHT22;45045;45.440;9.178;2022-12-10T15:52:43;14.00;99.90
32400;DHT22;45045;45.440;9.178;2022-12-10T15:55:11;14.00;99.90
32400;DHT22;45045;45.440;9.178;2022-12-10T15:57:38;14.00;99.90
32400;DHT22;45045;45.440;9.178;2022-12-10T16:00:21;14.00;99.90
32400;DHT22;45045;45.440;9.178;2022-12-10T16:02:56;14.00;99.90
32400;DHT22;45045;45.440;9.178;2022-12-10T16:07:51;13.80;99.90
32400;DHT22;45045;45.440;9.178;2022-12-10T16:10:19;13.90;99.90
32400;DHT22;45045;45.440;9.178;2022-12-10T16:12:47;13.90;99.90
32400;DHT22;45045;45.440;9.178;2022-12-10T16:15:24;13.90;99.90
32400;DHT22;45045;45.440;9.178;2022-12-10T16:17:51;13.90;99.90
32400;DHT22;45045;45.440;9.178;2022-12-10T16:20:24;13.90;99.90
32400;DHT22;45045;45.440;9.178;2022-12-10T16:22:51;13.90;99.90
32400;DHT22;45045;45.440;9.178;2022-12-10T16:25:17;14.00;99.90
32400;DHT22;45045;45.440;9.178;2022-12-10T16:27:44;14.00;99.90
32400;DHT22;45045;45.440;9.178;2022-12-10T16:30:20;14.00;99.90
32400;DHT22;45045;45.440;9.178;2022-12-10T16:32:47;14.00;99.90
32400;DHT22;45045;45.440;9.178;2022-12-10T16:35:13;13.90;99.90
32400;DHT22;45045;45.440;9.178;2022-12-10T16:37:43;13.90;99.90
32400;DHT22;45045;45.440;9.178;2022-12-10T16:40:12;13.90;99.90
32400;DHT22;45045;45.440;9.178;2022-12-10T16:42:38;13.90;99.90
32400;DHT22;45045;45.440;9.178;2022-12-10T16:45:15;13.90;99.90
32400;DHT22;45045;45.440;9.178;2022-12-10T16:47:41;13.90;99.90
32400;DHT22;45045;45.440;9.178;2022-12-10T16:50:07;13.90;99.90
32400;DHT22;45045;45.440;9.178;2022-12-10T16:52:32;13.90;99.90
32400;DHT22;45045;45.440;9.178;2022-12-10T16:54:58;14.00;99.90
32400;DHT22;45045;45.440;9.178;2022-12-10T16:57:23;14.00;99.90
32400;DHT22;45045;45.440;9.178;2022-12-10T16:59:49;13.90;99.90
32400;DHT22;45045;45.440;9.178;2022-12-10T17:02:16;13.90;99.90
32400;DHT22;45045;45.440;9.178;2022-12-10T17:04:43;14.00;99.90
32400;DHT22;45045;45.440;9.178;2022-12-10T17:07:11;13.90;99.90
32400;DHT22;45045;45.440;9.178;2022-12-10T17:09:37;13.90;99.90
32400;DHT22;45045;45.440;9.178;2022-12-10T17:12:04;14.00;99.90
32400;DHT22;45045;45.440;9.178;2022-12-10T17:14:33;13.90;99.90
32400;DHT22;45045;45.440;9.178;2022-12-10T17:17:01;13.90;99.90
32400;DHT22;45045;45.440;9.178;2022-12-10T17:19:34;14.00;99.90
32400;DHT22;45045;45.440;9.178;2022-12-10T17:22:00;13.90;99.90
32400;DHT22;45045;45.440;9.178;2022-12-10T17:24:26;14.00;99.90
32400;DHT22;45045;45.440;9.178;2022-12-10T17:26:52;14.00;99.90
32400;DHT22;45045;45.440;9.178;2022-12-10T17:29:33;14.00;99.90
32400;DHT22;45045;45.440;9.178;2022-12-10T17:32:01;13.90;99.90
32400;DHT22;45045;45.440;9.178;2022-12-10T17:34:27;13.90;99.90
32400;DHT22;45045;45.440;9.178;2022-12-10T17:36:52;13.90;99.90
32400;DHT22;45045;45.440;9.178;2022-12-10T17:39:20;13.80;99.90
32400;DHT22;45045;45.440;9.178;2022-12-10T17:41:46;13.80;99.90
32400;DHT22;45045;45.440;9.178;2022-12-10T17:44:12;13.80;99.90
32400;DHT22;45045;45.440;9.178;2022-12-10T17:46:38;13.80;99.90